Time;durP1;ratioP1;P1;durP2;ratioP2;P2;SDS_P1;SDS_P2;PMS_P1;PMS_P2;Temp;Humidity;BMP_temperature;BMP_pressure;BME280_temperature;BME280_humidity;BME280_pressure;Samples;Min_cycle;Max_cycle;Signal;HPM_P1;HPM_P2
2023/04/21 00:00:32;;;;;;;5.28;3.05;;;;;;;22.48;46.31;100282.53;41489431;28;20097;-80
2023/04/21 00:20:32;;;;;;;4.78;2.92;;;;;;;22.45;46.46;100268.78;41490953;28;20050;-81
2023/04/21 00:40:33;;;;;;;3.33;2.60;;;;;;;22.43;46.23;100268.09;41469215;28;20045;-79
2023/04/21 01:00:33;;;;;;;4.50;3.05;;;;;;;22.38;46.26;100263.19;41421247;28;20046;-77
2023/04/21 01:20:35;;;;;;;3.35;2.63;;;;;;;22.36;46.34;100259.81;41534307;28;20046;-77
2023/04/21 01:40:35;;;;;;;2.50;2.30;;;;;;;22.32;46.30;100246.03;41559328;28;20050;-80
2023/04/21 02:00:36;;;;;;;2.60;2.40;;;;;;;22.30;46.49;100247.16;41439284;28;20022;-79
2023/04/21 02:20:36;;;;;;;2.85;2.30;;;;;;;22.27;46.11;100250.06;41488370;28;20056;-78
2023/04/21 02:40:37;;;;;;;3.30;2.40;;;;;;;22.25;46.35;100254.63;41543848;28;20116;-78
2023/04/21 03:00:37;;;;;;;2.70;2.00;;;;;;;22.20;46.23;100255.84;41440731;28;20041;-77
2023/04/21 03:20:38;;;;;;;3.00;2.42;;;;;;;22.14;46.07;100268.69;41422790;28;20041;-78
2023/04/21 03:40:38;;;;;;;2.78;2.35;;;;;;;22.14;46.14;100284.53;41449807;28;20046;-79
2023/04/21 04:00:39;;;;;;;3.28;2.05;;;;;;;22.16;46.52;100299.25;41428334;28;20050;-79
2023/04/21 04:20:39;;;;;;;3.00;2.28;;;;;;;22.12;46.48;100313.66;41481743;28;20045;-78
2023/04/21 04:40:41;;;;;;;5.93;2.70;;;;;;;22.18;47.87;100323.69;41530102;28;20538;-78
2023/04/21 05:00:41;;;;;;;9.73;3.08;;;;;;;22.14;44.58;100322.28;41560398;28;20041;-81
2023/04/21 05:20:43;;;;;;;6.50;3.63;;;;;;;21.81;40.68;100326.69;41484945;28;20092;-77
2023/04/21 05:40:44;;;;;;;8.98;3.90;;;;;;;21.89;41.43;100326.94;41484759;28;20065;-79
2023/04/21 06:00:45;;;;;;;9.95;3.75;;;;;;;21.98;43.62;100327.16;41476538;28;20038;-79
2023/04/21 06:20:53;;;;;;;8.05;3.15;;;;;;;21.99;44.26;100334.09;41436113;28;20045;-79
2023/04/21 06:40:53;;;;;;;5.65;3.00;;;;;;;22.03;44.63;100331.09;41470865;28;20042;-79
2023/04/21 07:00:54;;;;;;;9.27;3.30;;;;;;;22.09;45.11;100324.44;41448164;28;20486;-79
2023/04/21 07:20:54;;;;;;;4.95;2.42;;;;;;;22.12;45.36;100316.31;41410042;28;20080;-79
2023/04/21 07:40:56;;;;;;;3.22;2.35;;;;;;;22.18;45.30;100307.88;41484251;28;20093;-77
2023/04/21 08:00:56;;;;;;;7.03;2.50;;;;;;;22.18;45.38;100312.31;41501005;28;20038;-79
2023/04/21 08:20:57;;;;;;;5.57;2.60;;;;;;;22.24;45.47;100306.53;41457436;28;20046;-77
2023/04/21 08:41:02;;;;;;;4.82;2.03;;;;;;;22.27;45.92;100306.28;41546437;28;20062;-79
2023/04/21 09:01:02;;;;;;;3.53;2.33;;;;;;;22.31;45.49;100289.22;41536723;28;20180;-79
2023/04/21 09:21:11;;;;;;;3.38;2.08;;;;;;;22.36;45.59;100288.84;41535378;28;20267;-79
2023/04/21 09:41:16;;;;;;;4.47;2.40;;;;;;;22.44;45.35;100269.78;41531158;28;20050;-77
2023/04/21 10:01:16;;;;;;;5.03;2.70;;;;;;;22.53;45.33;100245.22;41500879;28;20042;-81
2023/04/21 10:21:20;;;;;;;6.35;3.50;;;;;;;22.60;42.89;100230.53;41580002;28;20125;-78
2023/04/21 10:41:31;;;;;;;7.88;3.47;;;;;;;22.53;36.27;100222.31;41489870;28;20052;-77
2023/04/21 11:01:32;;;;;;;8.45;4.40;;;;;;;22.53;37.53;100206.50;41541339;28;20050;-78
2023/04/21 11:21:32;;;;;;;13.05;4.10;;;;;;;22.40;34.55;100197.97;41537203;28;20129;-77
2023/04/21 11:41:33;;;;;;;7.50;3.90;;;;;;;22.33;35.73;100178.31;41498997;28;20052;-78
2023/04/21 12:01:41;;;;;;;8.48;3.80;;;;;;;22.40;36.81;100179.50;41577600;28;20100;-76
2023/04/21 12:21:44;;;;;;;8.60;3.75;;;;;;;22.46;38.20;100162.28;41580465;28;20073;-76
2023/04/21 12:41:46;;;;;;;6.38;3.63;;;;;;;22.47;36.77;100153.41;41517438;28;20042;-75
2023/04/21 13:01:46;;;;;;;7.25;4.10;;;;;;;22.43;36.08;100149.38;41534746;28;20595;-76
2023/04/21 13:21:47;;;;;;;4.30;3.50;;;;;;;22.42;37.18;100139.78;41582402;28;20136;-76
2023/04/21 13:41:48;;;;;;;11.85;4.50;;;;;;;22.44;38.52;100135.22;41514699;28;20053;-75
2023/04/21 14:01:48;;;;;;;6.95;3.67;;;;;;;22.48;38.59;100111.03;41456825;28;20101;-75
2023/04/21 14:21:49;;;;;;;7.10;3.47;;;;;;;22.55;39.12;100095.53;41490933;28;20423;-76
2023/04/21 14:41:49;;;;;;;10.77;3.85;;;;;;;22.60;39.42;100087.22;41523379;28;20072;-73
2023/04/21 15:01:50;;;;;;;10.65;3.70;;;;;;;23.04;39.15;100071.84;41452083;28;20042;-74
2023/04/21 15:21:51;;;;;;;6.05;3.88;;;;;;;23.50;38.84;100058.91;41430813;28;20033;-75
2023/04/21 15:41:53;;;;;;;6.50;3.08;;;;;;;23.82;39.29;100040.00;41446529;28;20497;-75
2023/04/21 16:01:55;;;;;;;4.13;3.40;;;;;;;24.05;28.25;100026.47;41390180;28;20053;-72
2023/04/21 16:21:57;;;;;;;21.95;7.03;;;;;;;23.87;27.77;100015.78;41481158;28;20086;-77
2023/04/21 16:41:57;;;;;;;11.13;4.53;;;;;;;23.38;27.98;100015.94;41426066;28;20397;-76
2023/04/21 17:01:58;;;;;;;17.40;9.48;;;;;;;23.33;33.77;100019.00;41447267;28;20043;-75
2023/04/21 17:21:58;;;;;;;21.45;13.10;;;;;;;23.36;36.75;100011.78;41451390;28;20112;-75
2023/04/21 17:42:00;;;;;;;19.63;12.68;;;;;;;23.36;37.79;100025.81;41461940;28;20042;-75
2023/04/21 18:02:01;;;;;;;17.05;10.35;;;;;;;23.36;38.32;100032.91;41476510;28;20192;-75
2023/04/21 18:22:02;;;;;;;10.60;8.20;;;;;;;23.31;38.25;100050.03;41512970;28;20070;-76
2023/04/21 18:42:02;;;;;;;13.85;7.43;;;;;;;23.28;38.76;100063.53;41508479;28;20048;-75
2023/04/21 19:02:04;;;;;;;20.98;7.15;;;;;;;23.26;39.34;100059.34;41404500;28;20078;-74
2023/04/21 19:22:05;;;;;;;12.90;6.60;;;;;;;23.17;39.65;100068.97;41444681;28;20080;-75
2023/04/21 19:42:07;;;;;;;10.75;6.45;;;;;;;23.07;40.13;100066.28;41535627;28;20050;-82
2023/04/21 20:02:08;;;;;;;11.25;6.97;;;;;;;23.00;40.94;100081.00;41543685;28;20041;-80
2023/04/21 20:22:10;;;;;;;9.73;6.95;;;;;;;22.92;41.62;100086.97;41548316;28;20072;-80
2023/04/21 20:42:12;;;;;;;8.32;6.50;;;;;;;22.83;42.24;100093.09;41519869;28;20061;-81
2023/04/21 21:02:13;;;;;;;8.82;6.07;;;;;;;22.80;42.47;100093.34;41571932;28;20143;-80
2023/04/21 21:22:13;;;;;;;9.10;6.20;;;;;;;22.77;42.44;100105.00;41541192;28;20129;-79
2023/04/21 21:42:14;;;;;;;8.15;5.85;;;;;;;22.71;42.51;100109.03;41498915;28;21851;-80
2023/04/21 22:02:14;;;;;;;7.85;5.68;;;;;;;22.67;42.78;100120.00;41560269;28;20419;-82
2023/04/21 22:22:15;;;;;;;7.75;5.63;;;;;;;22.63;42.55;100126.50;41497947;28;20057;-78
2023/04/21 22:42:15;;;;;;;8.25;5.75;;;;;;;22.60;42.97;100130.25;41505038;28;20480;-81
2023/04/21 23:02:16;;;;;;;6.70;5.38;;;;;;;22.55;43.12;100132.47;41487553;28;20041;-80
2023/04/21 23:22:16;;;;;;;6.72;5.35;;;;;;;22.51;43.11;100139.00;41517918;28;20042;-79
2023/04/21 23:42:17;;;;;;;6.35;5.47;;;;;;;22.48;43.65;100136.59;41529215;28;20041;-80
